sensor_id;sensor_type;location;lat;lon;timestamp;P1;durP1;ratioP1;P2;durP2;ratioP2
12675;SDS011;63820;65.654;21.944;2023-10-09T00:02:24;0.60;;;0.60;;
12675;SDS011;63820;65.654;21.944;2023-10-09T00:05:08;0.57;;;0.57;;
12675;SDS011;63820;65.654;21.944;2023-10-09T00:07:55;0.77;;;0.60;;
12675;SDS011;63820;65.654;21.944;2023-10-09T00:10:39;1.00;;;0.60;;
12675;SDS011;63820;65.654;21.944;2023-10-09T00:13:36;0.50;;;0.50;;
12675;SDS011;63820;65.654;21.944;2023-10-09T00:16:21;0.90;;;0.60;;
12675;SDS011;63820;65.654;21.944;2023-10-09T00:19:18;1.23;;;0.63;;
12675;SDS011;63820;65.654;21.944;2023-10-09T00:22:14;1.23;;;0.60;;
12675;SDS011;63820;65.654;21.944;2023-10-09T00:25:08;0.50;;;0.50;;
12675;SDS011;63820;65.654;21.944;2023-10-09T00:27:55;0.83;;;0.60;;
12675;SDS011;63820;65.654;21.944;2023-10-09T00:30:42;1.33;;;0.73;;
12675;SDS011;63820;65.654;21.944;2023-10-09T00:33:26;0.60;;;0.43;;
12675;SDS011;63820;65.654;21.944;2023-10-09T00:36:10;0.70;;;0.50;;
12675;SDS011;63820;65.654;21.944;2023-10-09T00:38:58;1.43;;;0.50;;
12675;SDS011;63820;65.654;21.944;2023-10-09T00:41:49;2.03;;;0.60;;
12675;SDS011;63820;65.654;21.944;2023-10-09T00:44:33;0.40;;;0.40;;
12675;SDS011;63820;65.654;21.944;2023-10-09T00:47:24;0.50;;;0.50;;
12675;SDS011;63820;65.654;21.944;2023-10-09T00:50:17;1.40;;;0.50;;
12675;SDS011;63820;65.654;21.944;2023-10-09T00:53:02;2.17;;;0.67;;
12675;SDS011;63820;65.654;21.944;2023-10-09T00:56:01;1.60;;;0.60;;
12675;SDS011;63820;65.654;21.944;2023-10-09T00:59:02;0.43;;;0.40;;
12675;SDS011;63820;65.654;21.944;2023-10-09T01:01:53;0.97;;;0.60;;
12675;SDS011;63820;65.654;21.944;2023-10-09T01:04:42;1.23;;;0.50;;
12675;SDS011;63820;65.654;21.944;2023-10-09T01:07:28;1.10;;;0.50;;
12675;SDS011;63820;65.654;21.944;2023-10-09T01:10:16;0.50;;;0.40;;
12675;SDS011;63820;65.654;21.944;2023-10-09T01:13:00;0.70;;;0.50;;
12675;SDS011;63820;65.654;21.944;2023-10-09T01:15:46;0.67;;;0.40;;
12675;SDS011;63820;65.654;21.944;2023-10-09T01:18:30;0.40;;;0.40;;
12675;SDS011;63820;65.654;21.944;2023-10-09T01:21:22;0.60;;;0.50;;
12675;SDS011;63820;65.654;21.944;2023-10-09T01:24:10;0.87;;;0.63;;
12675;SDS011;63820;65.654;21.944;2023-10-09T01:26:54;1.27;;;0.50;;
12675;SDS011;63820;65.654;21.944;2023-10-09T01:29:43;0.70;;;0.60;;
12675;SDS011;63820;65.654;21.944;2023-10-09T01:32:29;0.80;;;0.60;;
12675;SDS011;63820;65.654;21.944;2023-10-09T01:35:13;0.83;;;0.50;;
12675;SDS011;63820;65.654;21.944;2023-10-09T01:38:06;1.60;;;0.70;;
12675;SDS011;63820;65.654;21.944;2023-10-09T01:40:57;0.90;;;0.60;;
12675;SDS011;63820;65.654;21.944;2023-10-09T01:43:50;1.33;;;0.60;;
12675;SDS011;63820;65.654;21.944;2023-10-09T01:46:39;0.50;;;0.40;;
12675;SDS011;63820;65.654;21.944;2023-10-09T01:49:24;0.67;;;0.60;;
12675;SDS011;63820;65.654;21.944;2023-10-09T01:52:15;0.93;;;0.53;;
12675;SDS011;63820;65.654;21.944;2023-10-09T01:55:00;1.03;;;0.63;;
12675;SDS011;63820;65.654;21.944;2023-10-09T01:57:50;0.40;;;0.40;;
12675;SDS011;63820;65.654;21.944;2023-10-09T02:00:34;0.40;;;0.40;;
12675;SDS011;63820;65.654;21.944;2023-10-09T02:03:27;0.37;;;0.37;;
12675;SDS011;63820;65.654;21.944;2023-10-09T02:06:13;1.23;;;0.80;;
12675;SDS011;63820;65.654;21.944;2023-10-09T02:09:10;3.07;;;0.63;;
12675;SDS011;63820;65.654;21.944;2023-10-09T02:12:03;0.50;;;0.50;;
12675;SDS011;63820;65.654;21.944;2023-10-09T02:14:47;0.33;;;0.30;;
12675;SDS011;63820;65.654;21.944;2023-10-09T02:17:31;1.07;;;0.50;;
12675;SDS011;63820;65.654;21.944;2023-10-09T02:20:18;0.97;;;0.60;;
12675;SDS011;63820;65.654;21.944;2023-10-09T02:23:12;0.47;;;0.40;;
12675;SDS011;63820;65.654;21.944;2023-10-09T02:26:08;1.07;;;0.67;;
12675;SDS011;63820;65.654;21.944;2023-10-09T02:28:53;0.40;;;0.40;;
12675;SDS011;63820;65.654;21.944;2023-10-09T02:31:58;1.97;;;0.50;;
12675;SDS011;63820;65.654;21.944;2023-10-09T02:34:56;0.73;;;0.50;;
12675;SDS011;63820;65.654;21.944;2023-10-09T02:37:46;0.47;;;0.30;;
12675;SDS011;63820;65.654;21.944;2023-10-09T02:40:30;0.40;;;0.40;;
12675;SDS011;63820;65.654;21.944;2023-10-09T02:43:23;0.50;;;0.50;;
12675;SDS011;63820;65.654;21.944;2023-10-09T02:46:09;0.40;;;0.40;;
12675;SDS011;63820;65.654;21.944;2023-10-09T02:49:04;0.63;;;0.40;;
12675;SDS011;63820;65.654;21.944;2023-10-09T02:51:50;1.43;;;0.60;;
12675;SDS011;63820;65.654;21.944;2023-10-09T02:54:37;1.00;;;0.60;;
12675;SDS011;63820;65.654;21.944;2023-10-09T02:57:28;1.47;;;0.70;;
12675;SDS011;63820;65.654;21.944;2023-10-09T03:00:20;1.27;;;0.60;;
12675;SDS011;63820;65.654;21.944;2023-10-09T03:03:13;0.60;;;0.40;;
12675;SDS011;63820;65.654;21.944;2023-10-09T03:06:03;0.53;;;0.47;;
12675;SDS011;63820;65.654;21.944;2023-10-09T03:08:54;1.80;;;0.80;;
12675;SDS011;63820;65.654;21.944;2023-10-09T03:11:38;0.63;;;0.57;;
12675;SDS011;63820;65.654;21.944;2023-10-09T03:14:23;2.00;;;1.00;;
12675;SDS011;63820;65.654;21.944;2023-10-09T03:17:10;0.97;;;0.90;;
12675;SDS011;63820;65.654;21.944;2023-10-09T03:19:57;0.70;;;0.60;;
12675;SDS011;63820;65.654;21.944;2023-10-09T03:22:44;0.93;;;0.50;;
12675;SDS011;63820;65.654;21.944;2023-10-09T03:25:29;0.90;;;0.50;;
12675;SDS011;63820;65.654;21.944;2023-10-09T03:28:14;0.80;;;0.63;;
12675;SDS011;63820;65.654;21.944;2023-10-09T03:30:59;0.60;;;0.40;;
12675;SDS011;63820;65.654;21.944;2023-10-09T03:33:46;1.17;;;0.60;;
12675;SDS011;63820;65.654;21.944;2023-10-09T03:36:31;0.50;;;0.50;;
12675;SDS011;63820;65.654;21.944;2023-10-09T03:39:20;1.43;;;0.70;;
12675;SDS011;63820;65.654;21.944;2023-10-09T03:42:18;1.97;;;0.60;;
12675;SDS011;63820;65.654;21.944;2023-10-09T03:45:06;0.80;;;0.50;;
12675;SDS011;63820;65.654;21.944;2023-10-09T03:47:56;1.23;;;0.50;;
12675;SDS011;63820;65.654;21.944;2023-10-09T03:50:59;0.47;;;0.40;;
12675;SDS011;63820;65.654;21.944;2023-10-09T03:53:52;0.60;;;0.47;;
12675;SDS011;63820;65.654;21.944;2023-10-09T03:56:37;0.37;;;0.30;;
12675;SDS011;63820;65.654;21.944;2023-10-09T03:59:21;0.40;;;0.40;;
12675;SDS011;63820;65.654;21.944;2023-10-09T04:02:05;1.50;;;0.50;;
12675;SDS011;63820;65.654;21.944;2023-10-09T04:04:49;0.57;;;0.50;;
12675;SDS011;63820;65.654;21.944;2023-10-09T04:07:35;0.70;;;0.40;;
12675;SDS011;63820;65.654;21.944;2023-10-09T04:10:20;0.80;;;0.60;;
12675;SDS011;63820;65.654;21.944;2023-10-09T04:13:18;1.67;;;0.50;;
12675;SDS011;63820;65.654;21.944;2023-10-09T04:16:06;1.07;;;0.50;;
12675;SDS011;63820;65.654;21.944;2023-10-09T04:19:19;1.33;;;0.47;;
12675;SDS011;63820;65.654;21.944;2023-10-09T04:22:06;1.33;;;0.53;;
12675;SDS011;63820;65.654;21.944;2023-10-09T04:24:53;0.40;;;0.40;;
12675;SDS011;63820;65.654;21.944;2023-10-09T04:27:37;0.33;;;0.30;;
12675;SDS011;63820;65.654;21.944;2023-10-09T04:30:22;0.67;;;0.50;;
12675;SDS011;63820;65.654;21.944;2023-10-09T04:33:07;0.40;;;0.40;;
12675;SDS011;63820;65.654;21.944;2023-10-09T04:36:11;1.87;;;0.60;;
12675;SDS011;63820;65.654;21.944;2023-10-09T04:39:05;0.40;;;0.40;;
12675;SDS011;63820;65.654;21.944;2023-10-09T04:41:49;0.83;;;0.63;;
12675;SDS011;63820;65.654;21.944;2023-10-09T04:44:33;1.10;;;0.63;;
12675;SDS011;63820;65.654;21.944;2023-10-09T04:47:20;0.50;;;0.40;;
12675;SDS011;63820;65.654;21.944;2023-10-09T04:50:09;1.80;;;0.60;;
12675;SDS011;63820;65.654;21.944;2023-10-09T04:53:17;0.47;;;0.43;;
12675;SDS011;63820;65.654;21.944;2023-10-09T04:56:01;3.17;;;0.60;;
12675;SDS011;63820;65.654;21.944;2023-10-09T04:58:48;2.00;;;0.60;;
12675;SDS011;63820;65.654;21.944;2023-10-09T05:01:33;2.10;;;0.60;;
12675;SDS011;63820;65.654;21.944;2023-10-09T05:04:20;1.80;;;0.70;;
12675;SDS011;63820;65.654;21.944;2023-10-09T05:07:23;0.87;;;0.63;;
12675;SDS011;63820;65.654;21.944;2023-10-09T05:10:07;0.83;;;0.60;;
12675;SDS011;63820;65.654;21.944;2023-10-09T05:13:00;1.40;;;0.70;;
12675;SDS011;63820;65.654;21.944;2023-10-09T05:15:46;1.60;;;1.00;;
12675;SDS011;63820;65.654;21.944;2023-10-09T05:18:36;2.53;;;0.80;;
12675;SDS011;63820;65.654;21.944;2023-10-09T05:21:24;1.50;;;0.80;;
12675;SDS011;63820;65.654;21.944;2023-10-09T05:24:13;0.70;;;0.70;;
12675;SDS011;63820;65.654;21.944;2023-10-09T05:26:57;2.30;;;0.90;;
12675;SDS011;63820;65.654;21.944;2023-10-09T05:30:01;1.10;;;0.70;;
12675;SDS011;63820;65.654;21.944;2023-10-09T05:32:56;1.10;;;0.80;;
12675;SDS011;63820;65.654;21.944;2023-10-09T05:36:04;0.77;;;0.70;;
12675;SDS011;63820;65.654;21.944;2023-10-09T05:39:15;0.90;;;0.67;;
12675;SDS011;63820;65.654;21.944;2023-10-09T05:42:13;2.37;;;0.77;;
12675;SDS011;63820;65.654;21.944;2023-10-09T05:45:02;3.47;;;0.90;;
12675;SDS011;63820;65.654;21.944;2023-10-09T05:48:02;0.80;;;0.73;;
12675;SDS011;63820;65.654;21.944;2023-10-09T05:50:59;1.10;;;0.80;;
12675;SDS011;63820;65.654;21.944;2023-10-09T05:54:18;1.50;;;0.97;;
12675;SDS011;63820;65.654;21.944;2023-10-09T05:57:28;0.73;;;0.60;;
12675;SDS011;63820;65.654;21.944;2023-10-09T06:00:30;1.13;;;0.60;;
12675;SDS011;63820;65.654;21.944;2023-10-09T06:03:33;1.03;;;0.53;;
12675;SDS011;63820;65.654;21.944;2023-10-09T06:06:33;0.97;;;0.50;;
12675;SDS011;63820;65.654;21.944;2023-10-09T06:09:17;0.73;;;0.70;;
12675;SDS011;63820;65.654;21.944;2023-10-09T06:12:01;0.73;;;0.60;;
12675;SDS011;63820;65.654;21.944;2023-10-09T06:15:04;1.13;;;0.60;;
12675;SDS011;63820;65.654;21.944;2023-10-09T06:18:16;0.50;;;0.40;;
12675;SDS011;63820;65.654;21.944;2023-10-09T06:21:09;0.50;;;0.50;;
12675;SDS011;63820;65.654;21.944;2023-10-09T06:24:13;1.90;;;0.60;;
12675;SDS011;63820;65.654;21.944;2023-10-09T06:26:57;1.23;;;0.63;;
12675;SDS011;63820;65.654;21.944;2023-10-09T06:29:42;4.37;;;0.63;;
12675;SDS011;63820;65.654;21.944;2023-10-09T06:32:32;0.90;;;0.50;;
12675;SDS011;63820;65.654;21.944;2023-10-09T06:35:17;1.07;;;0.73;;
12675;SDS011;63820;65.654;21.944;2023-10-09T06:38:14;1.73;;;0.73;;
12675;SDS011;63820;65.654;21.944;2023-10-09T06:41:07;1.00;;;0.60;;
12675;SDS011;63820;65.654;21.944;2023-10-09T06:44:20;0.70;;;0.57;;
12675;SDS011;63820;65.654;21.944;2023-10-09T06:47:24;1.33;;;0.60;;
12675;SDS011;63820;65.654;21.944;2023-10-09T06:50:09;0.73;;;0.70;;
12675;SDS011;63820;65.654;21.944;2023-10-09T06:53:04;1.50;;;0.70;;
12675;SDS011;63820;65.654;21.944;2023-10-09T06:55:54;0.57;;;0.50;;
12675;SDS011;63820;65.654;21.944;2023-10-09T06:58:50;0.70;;;0.50;;
12675;SDS011;63820;65.654;21.944;2023-10-09T07:01:38;0.53;;;0.40;;
12675;SDS011;63820;65.654;21.944;2023-10-09T07:04:22;0.80;;;0.40;;
12675;SDS011;63820;65.654;21.944;2023-10-09T07:07:16;0.50;;;0.40;;
12675;SDS011;63820;65.654;21.944;2023-10-09T07:10:04;0.60;;;0.47;;
12675;SDS011;63820;65.654;21.944;2023-10-09T07:13:07;2.20;;;0.53;;
12675;SDS011;63820;65.654;21.944;2023-10-09T07:15:51;1.30;;;0.57;;
12675;SDS011;63820;65.654;21.944;2023-10-09T07:19:11;0.30;;;0.30;;
12675;SDS011;63820;65.654;21.944;2023-10-09T07:22:18;2.37;;;0.40;;
12675;SDS011;63820;65.654;21.944;2023-10-09T07:25:05;0.40;;;0.40;;
12675;SDS011;63820;65.654;21.944;2023-10-09T07:28:11;0.47;;;0.40;;
12675;SDS011;63820;65.654;21.944;2023-10-09T07:31:34;0.40;;;0.30;;
12675;SDS011;63820;65.654;21.944;2023-10-09T07:34:23;1.27;;;0.50;;
12675;SDS011;63820;65.654;21.944;2023-10-09T07:37:37;0.60;;;0.40;;
12675;SDS011;63820;65.654;21.944;2023-10-09T07:40:21;0.40;;;0.40;;
12675;SDS011;63820;65.654;21.944;2023-10-09T07:43:15;0.57;;;0.40;;
12675;SDS011;63820;65.654;21.944;2023-10-09T07:46:01;0.80;;;0.40;;
12675;SDS011;63820;65.654;21.944;2023-10-09T07:48:46;0.40;;;0.40;;
12675;SDS011;63820;65.654;21.944;2023-10-09T07:51:36;0.30;;;0.30;;
12675;SDS011;63820;65.654;21.944;2023-10-09T07:54:21;0.40;;;0.40;;
12675;SDS011;63820;65.654;21.944;2023-10-09T07:57:20;1.33;;;0.47;;
12675;SDS011;63820;65.654;21.944;2023-10-09T08:00:10;0.40;;;0.40;;
12675;SDS011;63820;65.654;21.944;2023-10-09T08:03:13;0.43;;;0.30;;
12675;SDS011;63820;65.654;21.944;2023-10-09T08:06:07;0.30;;;0.30;;
12675;SDS011;63820;65.654;21.944;2023-10-09T08:09:11;0.90;;;0.60;;
12675;SDS011;63820;65.654;21.944;2023-10-09T08:11:58;0.40;;;0.30;;
12675;SDS011;63820;65.654;21.944;2023-10-09T08:14:58;1.40;;;0.30;;
12675;SDS011;63820;65.654;21.944;2023-10-09T08:18:01;0.70;;;0.30;;
12675;SDS011;63820;65.654;21.944;2023-10-09T08:20:54;1.23;;;0.40;;
12675;SDS011;63820;65.654;21.944;2023-10-09T08:23:41;0.40;;;0.30;;
12675;SDS011;63820;65.654;21.944;2023-10-09T08:26:34;0.30;;;0.30;;
12675;SDS011;63820;65.654;21.944;2023-10-09T08:29:31;0.80;;;0.35;;
12675;SDS011;63820;65.654;21.944;2023-10-09T08:32:18;0.68;;;0.40;;
12675;SDS011;63820;65.654;21.944;2023-10-09T08:35:02;0.50;;;0.30;;
12675;SDS011;63820;65.654;21.944;2023-10-09T08:37:49;0.80;;;0.20;;
12675;SDS011;63820;65.654;21.944;2023-10-09T08:40:40;0.65;;;0.20;;
12675;SDS011;63820;65.654;21.944;2023-10-09T08:43:25;0.50;;;0.40;;
12675;SDS011;63820;65.654;21.944;2023-10-09T08:46:09;0.40;;;0.30;;
12675;SDS011;63820;65.654;21.944;2023-10-09T08:48:57;0.30;;;0.28;;
12675;SDS011;63820;65.654;21.944;2023-10-09T08:51:43;0.30;;;0.30;;
12675;SDS011;63820;65.654;21.944;2023-10-09T08:54:29;0.30;;;0.30;;
12675;SDS011;63820;65.654;21.944;2023-10-09T08:57:16;0.40;;;0.30;;
12675;SDS011;63820;65.654;21.944;2023-10-09T09:00:03;0.85;;;0.30;;
12675;SDS011;63820;65.654;21.944;2023-10-09T09:02:53;0.45;;;0.40;;
12675;SDS011;63820;65.654;21.944;2023-10-09T09:05:37;0.65;;;0.30;;
12675;SDS011;63820;65.654;21.944;2023-10-09T09:08:22;0.90;;;0.40;;
12675;SDS011;63820;65.654;21.944;2023-10-09T09:11:09;0.60;;;0.40;;
12675;SDS011;63820;65.654;21.944;2023-10-09T09:16:46;0.45;;;0.40;;
12675;SDS011;63820;65.654;21.944;2023-10-09T09:19:32;0.47;;;0.30;;
12675;SDS011;63820;65.654;21.944;2023-10-09T09:22:16;0.30;;;0.22;;
12675;SDS011;63820;65.654;21.944;2023-10-09T09:25:03;0.73;;;0.40;;
12675;SDS011;63820;65.654;21.944;2023-10-09T09:27:52;0.30;;;0.22;;
12675;SDS011;63820;65.654;21.944;2023-10-09T09:30:38;0.32;;;0.20;;
12675;SDS011;63820;65.654;21.944;2023-10-09T09:33:25;0.45;;;0.30;;
12675;SDS011;63820;65.654;21.944;2023-10-09T09:36:10;0.40;;;0.30;;
12675;SDS011;63820;65.654;21.944;2023-10-09T09:38:55;0.43;;;0.35;;
12675;SDS011;63820;65.654;21.944;2023-10-09T09:41:45;0.77;;;0.30;;
12675;SDS011;63820;65.654;21.944;2023-10-09T09:44:31;0.63;;;0.30;;
12675;SDS011;63820;65.654;21.944;2023-10-09T09:47:17;1.20;;;0.30;;
12675;SDS011;63820;65.654;21.944;2023-10-09T09:50:09;0.30;;;0.30;;
12675;SDS011;63820;65.654;21.944;2023-10-09T09:52:56;0.30;;;0.30;;
12675;SDS011;63820;65.654;21.944;2023-10-09T09:55:41;0.40;;;0.30;;
12675;SDS011;63820;65.654;21.944;2023-10-09T09:58:36;0.68;;;0.30;;
12675;SDS011;63820;65.654;21.944;2023-10-09T10:01:28;1.50;;;0.28;;
12675;SDS011;63820;65.654;21.944;2023-10-09T10:04:18;0.47;;;0.40;;
12675;SDS011;63820;65.654;21.944;2023-10-09T10:07:06;0.30;;;0.30;;
12675;SDS011;63820;65.654;21.944;2023-10-09T10:09:52;0.40;;;0.30;;
12675;SDS011;63820;65.654;21.944;2023-10-09T10:19:03;1.77;;;0.50;;
12675;SDS011;63820;65.654;21.944;2023-10-09T10:21:51;0.45;;;0.30;;
12675;SDS011;63820;65.654;21.944;2023-10-09T10:27:36;1.13;;;0.32;;
12675;SDS011;63820;65.654;21.944;2023-10-09T10:30:39;0.43;;;0.25;;
12675;SDS011;63820;65.654;21.944;2023-10-09T10:34:03;0.13;;;0.13;;
12675;SDS011;63820;65.654;21.944;2023-10-09T10:36:39;0.40;;;0.30;;
12675;SDS011;63820;65.654;21.944;2023-10-09T10:39:27;0.50;;;0.30;;
12675;SDS011;63820;65.654;21.944;2023-10-09T10:42:29;0.22;;;0.20;;
12675;SDS011;63820;65.654;21.944;2023-10-09T10:45:19;0.25;;;0.20;;
12675;SDS011;63820;65.654;21.944;2023-10-09T10:48:18;0.30;;;0.20;;
12675;SDS011;63820;65.654;21.944;2023-10-09T10:51:20;0.65;;;0.40;;
12675;SDS011;63820;65.654;21.944;2023-10-09T10:54:06;0.55;;;0.30;;
12675;SDS011;63820;65.654;21.944;2023-10-09T10:57:28;0.60;;;0.30;;
12675;SDS011;63820;65.654;21.944;2023-10-09T11:00:12;0.30;;;0.20;;
12675;SDS011;63820;65.654;21.944;2023-10-09T11:03:17;0.20;;;0.20;;
12675;SDS011;63820;65.654;21.944;2023-10-09T11:06:13;0.30;;;0.20;;
12675;SDS011;63820;65.654;21.944;2023-10-09T11:08:58;0.20;;;0.20;;
12675;SDS011;63820;65.654;21.944;2023-10-09T11:11:52;0.40;;;0.17;;
12675;SDS011;63820;65.654;21.944;2023-10-09T11:14:55;0.20;;;0.20;;
12675;SDS011;63820;65.654;21.944;2023-10-09T11:18:03;0.40;;;0.20;;
12675;SDS011;63820;65.654;21.944;2023-10-09T11:20:52;0.20;;;0.20;;
12675;SDS011;63820;65.654;21.944;2023-10-09T11:24:03;0.40;;;0.30;;
12675;SDS011;63820;65.654;21.944;2023-10-09T11:27:06;0.40;;;0.20;;
12675;SDS011;63820;65.654;21.944;2023-10-09T11:30:02;0.50;;;0.30;;
12675;SDS011;63820;65.654;21.944;2023-10-09T11:33:06;0.68;;;0.20;;
12675;SDS011;63820;65.654;21.944;2023-10-09T11:35:57;0.15;;;0.15;;
12675;SDS011;63820;65.654;21.944;2023-10-09T11:38:42;0.38;;;0.20;;
12675;SDS011;63820;65.654;21.944;2023-10-09T11:41:33;0.38;;;0.22;;
12675;SDS011;63820;65.654;21.944;2023-10-09T11:44:35;0.20;;;0.20;;
12675;SDS011;63820;65.654;21.944;2023-10-09T11:47:23;0.20;;;0.20;;
12675;SDS011;63820;65.654;21.944;2023-10-09T11:50:17;0.40;;;0.30;;
12675;SDS011;63820;65.654;21.944;2023-10-09T11:53:01;0.40;;;0.30;;
12675;SDS011;63820;65.654;21.944;2023-10-09T11:56:16;0.20;;;0.20;;
12675;SDS011;63820;65.654;21.944;2023-10-09T11:59:03;0.47;;;0.25;;
12675;SDS011;63820;65.654;21.944;2023-10-09T12:01:49;2.40;;;0.32;;
12675;SDS011;63820;65.654;21.944;2023-10-09T12:04:36;0.28;;;0.28;;
12675;SDS011;63820;65.654;21.944;2023-10-09T12:07:22;0.25;;;0.22;;
12675;SDS011;63820;65.654;21.944;2023-10-09T12:10:09;0.30;;;0.20;;
12675;SDS011;63820;65.654;21.944;2023-10-09T12:12:54;1.55;;;0.30;;
12675;SDS011;63820;65.654;21.944;2023-10-09T12:15:42;0.47;;;0.35;;
12675;SDS011;63820;65.654;21.944;2023-10-09T12:18:30;0.35;;;0.20;;
12675;SDS011;63820;65.654;21.944;2023-10-09T12:21:19;0.35;;;0.20;;
12675;SDS011;63820;65.654;21.944;2023-10-09T12:24:04;0.20;;;0.20;;
12675;SDS011;63820;65.654;21.944;2023-10-09T12:26:56;0.32;;;0.20;;
12675;SDS011;63820;65.654;21.944;2023-10-09T12:29:40;0.47;;;0.32;;
12675;SDS011;63820;65.654;21.944;2023-10-09T12:32:28;0.20;;;0.20;;
12675;SDS011;63820;65.654;21.944;2023-10-09T12:35:12;0.47;;;0.30;;
12675;SDS011;63820;65.654;21.944;2023-10-09T12:38:00;0.13;;;0.10;;
12675;SDS011;63820;65.654;21.944;2023-10-09T12:40:45;0.40;;;0.30;;
12675;SDS011;63820;65.654;21.944;2023-10-09T12:43:35;0.68;;;0.30;;
12675;SDS011;63820;65.654;21.944;2023-10-09T12:46:22;0.20;;;0.20;;
12675;SDS011;63820;65.654;21.944;2023-10-09T12:49:06;0.20;;;0.20;;
12675;SDS011;63820;65.654;21.944;2023-10-09T12:51:51;0.22;;;0.20;;
12675;SDS011;63820;65.654;21.944;2023-10-09T12:54:38;0.20;;;0.20;;
12675;SDS011;63820;65.654;21.944;2023-10-09T12:57:22;0.35;;;0.25;;
12675;SDS011;63820;65.654;21.944;2023-10-09T13:00:07;0.50;;;0.30;;
12675;SDS011;63820;65.654;21.944;2023-10-09T13:02:55;1.45;;;0.20;;
12675;SDS011;63820;65.654;21.944;2023-10-09T13:05:39;0.40;;;0.20;;
12675;SDS011;63820;65.654;21.944;2023-10-09T13:08:36;0.20;;;0.20;;
12675;SDS011;63820;65.654;21.944;2023-10-09T13:11:21;0.20;;;0.20;;
12675;SDS011;63820;65.654;21.944;2023-10-09T13:14:10;0.10;;;0.10;;
12675;SDS011;63820;65.654;21.944;2023-10-09T13:17:01;0.40;;;0.30;;
12675;SDS011;63820;65.654;21.944;2023-10-09T13:19:53;0.85;;;0.30;;
12675;SDS011;63820;65.654;21.944;2023-10-09T13:22:40;0.30;;;0.23;;
12675;SDS011;63820;65.654;21.944;2023-10-09T13:25:30;0.60;;;0.30;;
12675;SDS011;63820;65.654;21.944;2023-10-09T13:28:23;0.20;;;0.20;;
12675;SDS011;63820;65.654;21.944;2023-10-09T13:31:07;0.20;;;0.20;;
12675;SDS011;63820;65.654;21.944;2023-10-09T13:33:54;0.90;;;0.50;;
12675;SDS011;63820;65.654;21.944;2023-10-09T13:36:38;0.13;;;0.13;;
12675;SDS011;63820;65.654;21.944;2023-10-09T13:39:23;0.37;;;0.20;;
12675;SDS011;63820;65.654;21.944;2023-10-09T13:42:08;0.20;;;0.20;;
12675;SDS011;63820;65.654;21.944;2023-10-09T13:44:53;0.20;;;0.20;;
12675;SDS011;63820;65.654;21.944;2023-10-09T13:47:37;0.20;;;0.20;;
12675;SDS011;63820;65.654;21.944;2023-10-09T13:50:24;0.30;;;0.27;;
12675;SDS011;63820;65.654;21.944;2023-10-09T13:53:12;0.10;;;0.10;;
12675;SDS011;63820;65.654;21.944;2023-10-09T13:55:58;0.57;;;0.30;;
12675;SDS011;63820;65.654;21.944;2023-10-09T13:58:42;0.30;;;0.30;;
12675;SDS011;63820;65.654;21.944;2023-10-09T14:01:26;0.20;;;0.20;;
12675;SDS011;63820;65.654;21.944;2023-10-09T14:04:10;0.57;;;0.20;;
12675;SDS011;63820;65.654;21.944;2023-10-09T14:07:01;1.80;;;0.30;;
12675;SDS011;63820;65.654;21.944;2023-10-09T14:09:49;0.33;;;0.30;;
12675;SDS011;63820;65.654;21.944;2023-10-09T14:12:39;0.30;;;0.30;;
12675;SDS011;63820;65.654;21.944;2023-10-09T14:15:24;1.27;;;0.37;;
12675;SDS011;63820;65.654;21.944;2023-10-09T14:18:08;0.87;;;0.30;;
12675;SDS011;63820;65.654;21.944;2023-10-09T14:20:55;0.70;;;0.30;;
12675;SDS011;63820;65.654;21.944;2023-10-09T14:23:40;0.63;;;0.33;;
12675;SDS011;63820;65.654;21.944;2023-10-09T14:26:29;0.40;;;0.40;;
12675;SDS011;63820;65.654;21.944;2023-10-09T14:29:13;0.67;;;0.60;;
12675;SDS011;63820;65.654;21.944;2023-10-09T14:32:00;0.30;;;0.30;;
12675;SDS011;63820;65.654;21.944;2023-10-09T14:34:44;0.33;;;0.20;;
12675;SDS011;63820;65.654;21.944;2023-10-09T14:37:34;0.43;;;0.30;;
12675;SDS011;63820;65.654;21.944;2023-10-09T14:40:19;0.33;;;0.30;;
12675;SDS011;63820;65.654;21.944;2023-10-09T14:43:13;0.53;;;0.40;;
12675;SDS011;63820;65.654;21.944;2023-10-09T14:46:04;0.30;;;0.30;;
12675;SDS011;63820;65.654;21.944;2023-10-09T14:48:54;0.57;;;0.30;;
12675;SDS011;63820;65.654;21.944;2023-10-09T14:51:39;1.73;;;0.37;;
12675;SDS011;63820;65.654;21.944;2023-10-09T14:54:23;1.10;;;0.47;;
12675;SDS011;63820;65.654;21.944;2023-10-09T14:57:07;0.93;;;0.60;;
12675;SDS011;63820;65.654;21.944;2023-10-09T14:59:52;0.63;;;0.60;;
12675;SDS011;63820;65.654;21.944;2023-10-09T15:02:37;0.50;;;0.43;;
12675;SDS011;63820;65.654;21.944;2023-10-09T15:05:22;0.57;;;0.50;;
12675;SDS011;63820;65.654;21.944;2023-10-09T15:08:06;2.07;;;0.40;;
12675;SDS011;63820;65.654;21.944;2023-10-09T15:10:54;0.83;;;0.37;;
12675;SDS011;63820;65.654;21.944;2023-10-09T15:13:40;1.53;;;0.40;;
12675;SDS011;63820;65.654;21.944;2023-10-09T15:16:24;1.80;;;0.50;;
12675;SDS011;63820;65.654;21.944;2023-10-09T15:19:10;0.40;;;0.40;;
12675;SDS011;63820;65.654;21.944;2023-10-09T15:21:54;0.43;;;0.30;;
12675;SDS011;63820;65.654;21.944;2023-10-09T15:24:38;0.40;;;0.30;;
12675;SDS011;63820;65.654;21.944;2023-10-09T15:27:24;2.30;;;0.50;;
12675;SDS011;63820;65.654;21.944;2023-10-09T15:30:08;0.40;;;0.40;;
12675;SDS011;63820;65.654;21.944;2023-10-09T15:32:57;0.50;;;0.50;;
12675;SDS011;63820;65.654;21.944;2023-10-09T15:35:45;0.63;;;0.50;;
12675;SDS011;63820;65.654;21.944;2023-10-09T15:38:30;0.50;;;0.40;;
12675;SDS011;63820;65.654;21.944;2023-10-09T15:41:14;1.90;;;0.53;;
12675;SDS011;63820;65.654;21.944;2023-10-09T15:43:59;0.80;;;0.40;;
12675;SDS011;63820;65.654;21.944;2023-10-09T15:46:44;1.30;;;0.37;;
12675;SDS011;63820;65.654;21.944;2023-10-09T15:49:28;0.40;;;0.40;;
12675;SDS011;63820;65.654;21.944;2023-10-09T15:52:17;0.57;;;0.40;;
12675;SDS011;63820;65.654;21.944;2023-10-09T15:55:02;3.70;;;0.60;;
12675;SDS011;63820;65.654;21.944;2023-10-09T15:57:46;1.43;;;0.50;;
12675;SDS011;63820;65.654;21.944;2023-10-09T16:00:35;1.30;;;0.67;;
12675;SDS011;63820;65.654;21.944;2023-10-09T16:03:21;0.80;;;0.30;;
12675;SDS011;63820;65.654;21.944;2023-10-09T16:06:08;3.33;;;0.70;;
12675;SDS011;63820;65.654;21.944;2023-10-09T16:08:55;0.97;;;0.60;;
12675;SDS011;63820;65.654;21.944;2023-10-09T16:11:39;4.03;;;0.80;;
12675;SDS011;63820;65.654;21.944;2023-10-09T16:14:23;4.13;;;0.60;;
12675;SDS011;63820;65.654;21.944;2023-10-09T16:17:07;1.27;;;0.70;;
12675;SDS011;63820;65.654;21.944;2023-10-09T16:19:53;2.83;;;0.63;;
12675;SDS011;63820;65.654;21.944;2023-10-09T16:22:37;1.63;;;0.87;;
12675;SDS011;63820;65.654;21.944;2023-10-09T16:25:22;1.93;;;1.00;;
12675;SDS011;63820;65.654;21.944;2023-10-09T16:28:08;1.07;;;0.90;;
12675;SDS011;63820;65.654;21.944;2023-10-09T16:30:52;4.87;;;0.97;;
12675;SDS011;63820;65.654;21.944;2023-10-09T16:33:37;1.97;;;1.10;;
12675;SDS011;63820;65.654;21.944;2023-10-09T16:36:21;2.53;;;1.50;;
12675;SDS011;63820;65.654;21.944;2023-10-09T16:39:06;2.23;;;1.70;;
12675;SDS011;63820;65.654;21.944;2023-10-09T16:42:02;3.00;;;1.60;;
12675;SDS011;63820;65.654;21.944;2023-10-09T16:44:48;2.47;;;1.50;;
12675;SDS011;63820;65.654;21.944;2023-10-09T16:47:32;2.53;;;1.80;;
12675;SDS011;63820;65.654;21.944;2023-10-09T16:50:17;4.20;;;1.73;;
12675;SDS011;63820;65.654;21.944;2023-10-09T16:53:00;5.37;;;1.47;;
12675;SDS011;63820;65.654;21.944;2023-10-09T16:55:47;2.27;;;1.53;;
12675;SDS011;63820;65.654;21.944;2023-10-09T16:58:32;4.00;;;1.73;;
12675;SDS011;63820;65.654;21.944;2023-10-09T17:01:16;6.43;;;2.10;;